Terminal Aerodrome Forecast
Issued by NWS

Home | Current Version | Previous Version | Text Only | Print | Product List | Glossary On
Versions: 1 2 3 4 5 6 7 8 9 10 11 12 13 14 15
000
FTUS45 KLKN 282324
TAFEKO
TAF
KEKO 282324Z 2900/2924 02011KT P6SM VCSH FEW040 BKN080
     FM290300 VRB04KT P6SM SCT060 BKN090
     FM291700 26011KT P6SM SCT060 BKN090
     FM292100 26011G19KT P6SM VCSH SCT040 BKN080=

USA.gov is the U.S. government's official web portal to all federal, state and local government web resources and services.